createdAt,value
2023-05-04T00:00:48.569Z,26.80
2023-05-04T00:03:16.934Z,29.20
2023-05-04T00:05:45.264Z,29.95
2023-05-04T00:08:13.714Z,28.45
2023-05-04T00:10:43.298Z,29.85
2023-05-04T00:13:11.883Z,30.05
2023-05-04T00:15:40.168Z,30.67
2023-05-04T00:18:08.617Z,30.23
2023-05-04T00:20:36.925Z,30.10
2023-05-04T00:23:06.069Z,30.00
2023-05-04T00:25:34.518Z,27.80
2023-05-04T00:28:04.176Z,31.00
2023-05-04T00:30:40.836Z,30.60
2023-05-04T00:33:09.213Z,29.35
2023-05-04T00:35:37.774Z,32.33
2023-05-04T00:38:06.025Z,32.28
2023-05-04T00:40:35.196Z,30.10
2023-05-04T00:43:04.838Z,30.13
2023-05-04T00:45:33.541Z,36.33
2023-05-04T00:48:01.999Z,28.80
2023-05-04T00:50:30.542Z,28.90
2023-05-04T00:53:00.292Z,32.65
2023-05-04T00:55:28.584Z,32.97
2023-05-04T00:57:57.236Z,32.05
2023-05-04T01:00:27.290Z,31.65
2023-05-04T01:02:55.670Z,32.60
2023-05-04T01:05:25.017Z,30.80
2023-05-04T01:07:58.073Z,32.45
2023-05-04T01:10:30.447Z,33.17
2023-05-04T01:13:03.103Z,32.03
2023-05-04T01:15:33.304Z,33.88
2023-05-04T01:18:01.939Z,32.20
2023-05-04T01:20:30.515Z,29.58
2023-05-04T01:23:00.353Z,30.77
2023-05-04T01:25:31.556Z,34.58
2023-05-04T01:28:04.122Z,32.58
2023-05-04T01:30:37.484Z,31.27
2023-05-04T01:33:06.083Z,32.83
2023-05-04T01:35:34.668Z,29.48
2023-05-04T01:38:04.754Z,31.15
2023-05-04T01:40:33.309Z,30.40
2023-05-04T01:43:01.633Z,30.77
2023-05-04T01:45:30.008Z,27.88
2023-05-04T01:47:58.336Z,31.00
2023-05-04T01:50:26.790Z,30.98
2023-05-04T01:52:55.133Z,28.50
2023-05-04T01:55:24.729Z,28.95
2023-05-04T01:57:53.020Z,26.98
2023-05-04T02:00:21.718Z,25.77
2023-05-04T02:02:50.167Z,28.95
2023-05-04T02:05:18.532Z,27.58
2023-05-04T02:07:46.802Z,31.50
2023-05-04T02:10:15.153Z,25.83
2023-05-04T02:12:44.813Z,25.92
2023-05-04T02:15:13.158Z,24.13
2023-05-04T02:17:41.595Z,26.20
2023-05-04T02:20:11.219Z,28.13
2023-05-04T02:22:39.583Z,23.77
2023-05-04T02:25:08.809Z,25.17
2023-05-04T02:27:37.076Z,24.08
2023-05-04T02:30:08.143Z,24.05
2023-05-04T02:32:36.641Z,25.00
2023-05-04T02:35:05.199Z,25.85
2023-05-04T02:37:33.538Z,21.00
2023-05-04T02:40:01.937Z,22.63
2023-05-04T02:42:30.201Z,26.33
2023-05-04T02:44:58.451Z,25.40
2023-05-04T02:47:28.062Z,23.60
2023-05-04T02:49:56.368Z,19.95
2023-05-04T02:52:24.614Z,21.83
2023-05-04T02:54:53.331Z,25.27
2023-05-04T02:57:21.750Z,23.15
2023-05-04T02:59:50.016Z,18.08
2023-05-04T03:02:18.296Z,20.55
2023-05-04T03:04:47.870Z,17.42
2023-05-04T03:07:16.136Z,18.40
2023-05-04T03:09:46.772Z,17.75
2023-05-04T03:12:15.823Z,20.92
2023-05-04T03:14:44.129Z,16.00
2023-05-04T03:17:12.398Z,19.45
2023-05-04T03:19:40.757Z,16.25
2023-05-04T03:22:10.359Z,22.60
2023-05-04T03:24:39.779Z,18.02
2023-05-04T03:27:08.026Z,17.48
2023-05-04T03:29:36.447Z,19.02
2023-05-04T03:32:04.850Z,19.88
2023-05-04T03:34:33.155Z,18.25
2023-05-04T03:37:01.392Z,23.25
2023-05-04T03:39:31.224Z,17.40
2023-05-04T03:41:59.473Z,19.48
2023-05-04T03:44:27.719Z,22.35
2023-05-04T03:46:55.986Z,22.92
2023-05-04T03:49:24.246Z,21.58
2023-05-04T03:51:52.541Z,18.50
2023-05-04T03:54:20.812Z,19.83
2023-05-04T03:56:50.461Z,17.75
2023-05-04T03:59:18.719Z,22.90
2023-05-04T04:01:47.056Z,17.63
2023-05-04T04:04:15.301Z,19.27
2023-05-04T04:06:43.665Z,18.65
2023-05-04T04:09:11.967Z,21.35
2023-05-04T04:11:40.245Z,20.35
2023-05-04T04:14:09.952Z,18.23
2023-05-04T04:16:38.341Z,16.57
2023-05-04T04:19:07.945Z,18.80
2023-05-04T04:21:36.190Z,18.65
2023-05-04T04:24:04.714Z,15.80
2023-05-04T04:26:34.090Z,23.58
2023-05-04T04:29:02.334Z,15.63
2023-05-04T04:31:31.964Z,17.10
2023-05-04T04:34:00.854Z,19.40
2023-05-04T04:36:29.523Z,15.25
2023-05-04T04:38:57.832Z,16.15
2023-05-04T04:41:26.068Z,15.27
2023-05-04T04:43:54.337Z,11.45
2023-05-04T04:46:22.567Z,12.77
2023-05-04T04:48:53.508Z,15.23
2023-05-04T04:51:21.930Z,14.50
2023-05-04T04:53:51.318Z,15.82
2023-05-04T04:56:19.919Z,13.02
2023-05-04T04:58:48.612Z,17.10
2023-05-04T05:01:18.090Z,10.82
2023-05-04T05:03:46.961Z,13.93
2023-05-04T05:06:16.668Z,11.55
2023-05-04T05:08:45.387Z,10.38
2023-05-04T05:11:13.668Z,13.75
2023-05-04T05:13:41.937Z,13.48
2023-05-04T05:16:10.299Z,13.48
2023-05-04T05:18:38.588Z,13.38
2023-05-04T05:21:07.712Z,12.73
2023-05-04T05:23:37.346Z,11.55
2023-05-04T05:26:05.654Z,15.97
2023-05-04T05:28:34.005Z,14.90
2023-05-04T05:31:02.420Z,14.32
2023-05-04T05:33:30.729Z,13.88
2023-05-04T05:35:59.005Z,14.70
2023-05-04T05:38:27.459Z,14.38
2023-05-04T05:40:57.109Z,15.07
2023-05-04T05:43:25.371Z,16.30
2023-05-04T05:45:54.148Z,14.93
2023-05-04T05:48:22.435Z,17.92
2023-05-04T05:50:50.780Z,17.42
2023-05-04T05:53:19.044Z,18.02
2023-05-04T05:55:47.475Z,16.10
2023-05-04T05:58:17.098Z,18.08
2023-05-04T06:00:45.381Z,13.27
2023-05-04T06:03:14.421Z,15.85
2023-05-04T06:05:42.834Z,20.55
2023-05-04T06:08:11.117Z,18.15
2023-05-04T06:10:39.597Z,15.65
2023-05-04T06:13:07.933Z,17.55
2023-05-04T06:15:37.633Z,14.10
2023-05-04T06:18:06.026Z,17.25
2023-05-04T06:20:34.390Z,15.48
2023-05-04T06:23:02.793Z,16.23
2023-05-04T06:25:31.307Z,15.82
2023-05-04T06:27:59.616Z,13.50
2023-05-04T06:30:27.949Z,17.17
2023-05-04T06:32:57.631Z,16.55
2023-05-04T06:35:26.183Z,17.67
2023-05-04T06:37:54.467Z,17.60
2023-05-04T06:40:22.712Z,13.85
2023-05-04T06:42:51.147Z,18.60
2023-05-04T06:45:19.474Z,16.77
2023-05-04T06:47:47.801Z,13.98
2023-05-04T06:50:17.618Z,19.13
2023-05-04T06:52:46.451Z,15.65
2023-05-04T06:55:14.982Z,13.77
2023-05-04T06:57:43.226Z,15.48
2023-05-04T07:00:12.624Z,16.75
2023-05-04T07:02:40.986Z,16.13
2023-05-04T07:05:09.817Z,14.90
2023-05-04T07:07:39.609Z,14.25
2023-05-04T07:10:08.650Z,15.88
2023-05-04T07:12:37.652Z,14.82
2023-05-04T07:15:07.542Z,13.73
2023-05-04T07:17:36.752Z,14.88
2023-05-04T07:20:06.576Z,14.40
2023-05-04T07:22:35.304Z,14.25
2023-05-04T07:25:05.585Z,15.80
2023-05-04T07:27:35.045Z,12.52
2023-05-04T07:30:04.386Z,13.73
2023-05-04T07:32:32.856Z,13.63
2023-05-04T07:35:01.114Z,15.48
2023-05-04T07:37:29.427Z,14.52
2023-05-04T07:39:57.677Z,15.90
2023-05-04T07:42:28.025Z,12.65
2023-05-04T07:44:56.380Z,14.27
2023-05-04T07:47:24.808Z,15.18
2023-05-04T07:49:53.038Z,12.93
2023-05-04T07:52:21.264Z,13.00
2023-05-04T07:54:53.222Z,11.63
2023-05-04T07:57:21.877Z,11.27
2023-05-04T07:59:55.049Z,12.60
2023-05-04T08:02:23.773Z,13.90
2023-05-04T08:04:52.139Z,10.15
2023-05-04T08:07:22.516Z,10.57
2023-05-04T08:09:52.322Z,11.05
2023-05-04T08:12:20.636Z,9.93
2023-05-04T08:14:49.146Z,10.57
2023-05-04T08:17:18.809Z,10.15
2023-05-04T08:19:47.231Z,10.93
2023-05-04T08:22:15.469Z,9.45
2023-05-04T08:24:43.710Z,9.85
2023-05-04T08:27:13.824Z,10.02
2023-05-04T08:29:42.099Z,9.38
2023-05-04T08:32:10.436Z,11.20
2023-05-04T08:34:40.043Z,14.50
2023-05-04T08:37:08.309Z,10.97
2023-05-04T08:39:39.377Z,9.38
2023-05-04T08:42:08.872Z,7.80
2023-05-04T08:44:37.108Z,10.48
2023-05-04T08:47:05.854Z,9.57
2023-05-04T08:49:34.134Z,10.93
2023-05-04T08:52:09.413Z,9.10
2023-05-04T08:54:39.742Z,8.23
2023-05-04T08:57:08.246Z,8.57
2023-05-04T08:59:37.473Z,11.05
2023-05-04T09:02:06.094Z,9.82
2023-05-04T09:04:34.441Z,9.52
2023-05-04T09:07:04.046Z,9.73
2023-05-04T09:09:32.560Z,12.60
2023-05-04T09:12:00.791Z,10.52
2023-05-04T09:14:33.599Z,11.65
2023-05-04T09:17:02.152Z,8.70
2023-05-04T09:19:34.653Z,10.60
2023-05-04T09:22:15.609Z,8.85
2023-05-04T09:24:44.196Z,15.52
2023-05-04T09:27:13.365Z,15.25
2023-05-04T09:29:42.537Z,9.95
2023-05-04T09:32:15.403Z,10.02
2023-05-04T09:34:50.652Z,12.88
2023-05-04T09:37:22.222Z,9.85
2023-05-04T09:39:55.139Z,12.68
2023-05-04T09:42:24.073Z,12.25
2023-05-04T09:45:06.374Z,11.40
2023-05-04T09:47:38.411Z,10.43
2023-05-04T09:50:19.819Z,9.57
2023-05-04T09:52:51.344Z,10.90
2023-05-04T09:57:49.203Z,11.00
2023-05-04T10:00:18.732Z,9.48
2023-05-04T10:02:48.101Z,12.23
2023-05-04T10:05:18.137Z,12.35
2023-05-04T10:07:47.123Z,9.25
2023-05-04T10:10:16.894Z,11.32
2023-05-04T10:12:45.969Z,13.77
2023-05-04T10:15:15.966Z,10.15
2023-05-04T10:18:08.858Z,14.52
2023-05-04T10:21:02.875Z,10.25
2023-05-04T10:24:05.681Z,9.45
2023-05-04T10:26:43.206Z,10.25
2023-05-04T10:31:47.289Z,11.07
2023-05-04T10:34:25.900Z,13.35
2023-05-04T10:36:54.188Z,13.05
2023-05-04T10:39:24.479Z,11.25
2023-05-04T10:42:04.792Z,9.40
2023-05-04T10:44:34.425Z,9.60
2023-05-04T10:47:05.301Z,10.20
2023-05-04T10:49:34.010Z,12.77
2023-05-04T10:52:09.410Z,11.45
2023-05-04T10:54:38.160Z,12.32
2023-05-04T10:57:09.068Z,11.75
2023-05-04T10:59:37.824Z,12.10
2023-05-04T11:02:07.559Z,11.13
2023-05-04T11:04:36.585Z,9.68
2023-05-04T11:07:06.886Z,10.00
2023-05-04T11:09:39.451Z,12.38
2023-05-04T11:12:11.467Z,11.18
2023-05-04T11:14:43.359Z,11.23
2023-05-04T11:19:50.917Z,10.18
2023-05-04T11:22:19.464Z,11.27
2023-05-04T11:24:49.155Z,12.77
2023-05-04T11:27:26.209Z,13.95
2023-05-04T11:29:58.318Z,11.10
2023-05-04T11:32:36.825Z,11.63
2023-05-04T11:35:06.639Z,11.57
2023-05-04T11:37:40.296Z,10.95
2023-05-04T11:40:13.285Z,11.00
2023-05-04T11:42:43.572Z,12.45
2023-05-04T11:45:15.587Z,10.10
2023-05-04T11:47:44.846Z,10.40
2023-05-04T11:50:14.505Z,11.40
2023-05-04T11:52:43.476Z,13.95
2023-05-04T11:55:12.702Z,9.88
2023-05-04T11:57:41.016Z,10.35
2023-05-04T12:00:12.351Z,12.05
2023-05-04T12:02:40.860Z,13.90
2023-05-04T12:05:13.837Z,11.48
2023-05-04T12:07:42.364Z,11.10
2023-05-04T12:10:11.094Z,10.52
2023-05-04T12:12:39.349Z,10.65
2023-05-04T12:15:08.972Z,10.75
2023-05-04T12:17:45.198Z,11.63
2023-05-04T12:20:23.829Z,11.00
2023-05-04T12:22:52.142Z,11.48
2023-05-04T12:25:20.716Z,10.77
2023-05-04T12:27:49.167Z,12.50
2023-05-04T12:30:18.448Z,10.35
2023-05-04T12:35:17.352Z,9.32
2023-05-04T12:37:45.750Z,7.65
2023-05-04T12:40:27.842Z,9.98
2023-05-04T12:42:56.793Z,8.60
2023-05-04T12:45:25.084Z,8.45
2023-05-04T12:47:54.793Z,11.23
2023-05-04T12:50:23.263Z,10.98
2023-05-04T12:52:51.542Z,8.00
2023-05-04T12:55:19.828Z,9.68
2023-05-04T12:57:48.143Z,10.90
2023-05-04T13:00:16.856Z,8.57
2023-05-04T13:02:45.237Z,8.95
2023-05-04T13:05:15.998Z,8.45
2023-05-04T13:07:44.314Z,10.38
2023-05-04T13:10:12.623Z,6.97
2023-05-04T13:12:40.950Z,8.90
2023-05-04T13:15:10.724Z,8.90
2023-05-04T13:17:39.210Z,9.32
2023-05-04T13:20:08.940Z,8.95
2023-05-04T13:22:38.769Z,10.18
2023-05-04T13:25:08.606Z,7.53
2023-05-04T13:27:37.471Z,8.07
2023-05-04T13:30:07.495Z,8.30
2023-05-04T13:32:36.290Z,11.23
2023-05-04T13:35:05.370Z,8.35
2023-05-04T13:37:33.946Z,8.52
2023-05-04T13:40:03.747Z,7.25
2023-05-04T13:42:33.941Z,8.30
2023-05-04T13:45:03.583Z,11.43
2023-05-04T13:47:32.472Z,9.65
2023-05-04T13:50:02.123Z,11.23
2023-05-04T13:52:31.743Z,9.18
2023-05-04T13:55:00.163Z,11.75
2023-05-04T13:57:29.849Z,9.77
2023-05-04T14:00:07.264Z,9.07
2023-05-04T14:02:36.657Z,8.23
2023-05-04T14:05:05.940Z,9.15
2023-05-04T14:07:35.327Z,8.50
2023-05-04T14:10:03.831Z,8.70
2023-05-04T14:12:33.577Z,8.45
2023-05-04T14:15:01.891Z,7.93
2023-05-04T14:17:30.152Z,9.93
2023-05-04T14:19:58.996Z,7.78
2023-05-04T14:22:27.278Z,7.85
2023-05-04T14:24:55.678Z,12.93
2023-05-04T14:27:23.989Z,8.05
2023-05-04T14:29:54.449Z,9.25
2023-05-04T14:32:22.691Z,8.63
2023-05-04T14:34:51.098Z,6.93
2023-05-04T14:37:19.326Z,10.57
2023-05-04T14:39:47.595Z,9.32
2023-05-04T14:42:15.836Z,10.25
2023-05-04T14:44:44.108Z,7.75
2023-05-04T14:47:13.692Z,8.57
2023-05-04T14:49:42.928Z,8.45
2023-05-04T14:52:11.576Z,7.23
2023-05-04T14:54:39.780Z,9.25
2023-05-04T14:57:09.169Z,8.50
2023-05-04T14:59:38.626Z,7.10
2023-05-04T15:02:08.058Z,7.57
2023-05-04T15:04:37.717Z,7.20
2023-05-04T15:07:06.032Z,5.75
2023-05-04T15:09:34.398Z,7.07
2023-05-04T15:12:03.603Z,9.52
2023-05-04T15:14:31.915Z,7.28
2023-05-04T15:17:00.156Z,8.55
2023-05-04T15:19:28.446Z,9.38
2023-05-04T15:21:58.017Z,7.75
2023-05-04T15:24:26.251Z,8.68
2023-05-04T15:26:54.577Z,7.65
2023-05-04T15:29:22.902Z,8.73
2023-05-04T15:31:53.383Z,7.22
2023-05-04T15:34:21.741Z,8.77
2023-05-04T15:36:49.977Z,9.00
2023-05-04T15:39:19.633Z,9.23
2023-05-04T15:41:47.863Z,6.70
2023-05-04T15:44:16.202Z,6.78
2023-05-04T15:46:46.534Z,7.75
2023-05-04T15:51:42.938Z,10.18
2023-05-04T15:54:11.330Z,7.45
2023-05-04T15:56:41.100Z,7.72
2023-05-04T15:59:09.354Z,6.75
2023-05-04T16:01:39.954Z,7.03
2023-05-04T16:04:08.365Z,8.95
2023-05-04T16:06:36.744Z,5.93
2023-05-04T16:09:05.140Z,6.85
2023-05-04T16:11:33.647Z,7.28
2023-05-04T16:14:03.283Z,7.68
2023-05-04T16:16:31.585Z,8.20
2023-05-04T16:18:59.923Z,8.23
2023-05-04T16:21:28.164Z,8.10
2023-05-04T16:23:56.425Z,6.90
2023-05-04T16:26:24.770Z,9.10
2023-05-04T16:28:53.075Z,7.95
2023-05-04T16:31:22.779Z,9.35
2023-05-04T16:33:51.083Z,10.90
2023-05-04T16:36:19.326Z,9.50
2023-05-04T16:38:48.981Z,6.18
2023-05-04T16:41:19.078Z,6.70
2023-05-04T16:43:48.968Z,8.55
2023-05-04T16:46:17.495Z,8.68
2023-05-04T16:48:47.139Z,7.55
2023-05-04T16:51:15.395Z,7.25
2023-05-04T16:53:43.665Z,7.78
2023-05-04T16:56:18.097Z,9.18
2023-05-04T16:58:46.513Z,7.63
2023-05-04T17:01:14.786Z,6.72
2023-05-04T17:03:43.071Z,8.90
2023-05-04T17:06:13.249Z,7.30
2023-05-04T17:08:41.529Z,7.60
2023-05-04T17:11:09.798Z,11.57
2023-05-04T17:13:38.188Z,9.73
2023-05-04T17:16:07.283Z,8.10
2023-05-04T17:18:35.580Z,8.00
2023-05-04T17:21:03.817Z,7.45
2023-05-04T17:23:33.676Z,9.60
2023-05-04T17:26:01.960Z,7.82
2023-05-04T17:28:30.362Z,8.38
2023-05-04T17:30:58.636Z,8.05
2023-05-04T17:33:26.913Z,8.52
2023-05-04T17:35:55.198Z,9.77
2023-05-04T17:38:23.468Z,7.53
2023-05-04T17:40:53.082Z,9.25
2023-05-04T17:43:21.453Z,9.75
2023-05-04T17:45:49.677Z,9.70
2023-05-04T17:48:18.044Z,10.80
2023-05-04T17:50:46.568Z,9.45
2023-05-04T17:53:14.789Z,7.97
2023-05-04T17:55:43.204Z,11.75
2023-05-04T17:58:12.802Z,11.65
2023-05-04T18:00:41.352Z,12.10
2023-05-04T18:03:09.833Z,9.70
2023-05-04T18:05:38.228Z,10.07
2023-05-04T18:08:06.713Z,11.10
2023-05-04T18:10:35.989Z,10.07
2023-05-04T18:13:04.266Z,11.25
2023-05-04T18:15:33.938Z,11.07
2023-05-04T18:18:02.538Z,11.87
2023-05-04T18:20:30.841Z,9.30
2023-05-04T18:22:59.100Z,10.05
2023-05-04T18:25:27.497Z,9.80
2023-05-04T18:27:56.083Z,11.85
2023-05-04T18:30:24.378Z,10.82
2023-05-04T18:32:54.008Z,9.88
2023-05-04T18:35:22.499Z,15.27
2023-05-04T18:37:50.905Z,9.45
2023-05-04T18:40:19.285Z,11.10
2023-05-04T18:42:47.508Z,12.63
2023-05-04T18:45:15.804Z,11.95
2023-05-04T18:47:44.096Z,10.23
2023-05-04T18:50:13.964Z,10.57
2023-05-04T18:52:42.194Z,8.90
2023-05-04T18:55:11.027Z,7.60
2023-05-04T18:57:39.274Z,10.90
2023-05-04T19:00:09.489Z,10.05
2023-05-04T19:02:38.143Z,7.15
2023-05-04T19:05:06.872Z,7.95
2023-05-04T19:07:37.004Z,9.18
2023-05-04T19:10:06.632Z,8.82
2023-05-04T19:12:35.068Z,12.82
2023-05-04T19:15:03.293Z,10.57
2023-05-04T19:17:31.751Z,8.38
2023-05-04T19:20:00.092Z,12.85
2023-05-04T19:22:28.395Z,8.70
2023-05-04T19:24:58.057Z,9.57
2023-05-04T19:27:26.367Z,17.33
2023-05-04T19:29:56.102Z,14.05
2023-05-04T19:32:25.166Z,16.70
2023-05-04T19:34:53.800Z,11.15
2023-05-04T19:37:22.190Z,9.05
2023-05-04T19:39:50.481Z,9.98
2023-05-04T19:42:20.133Z,10.45
2023-05-04T19:44:48.384Z,12.50
2023-05-04T19:47:16.918Z,11.50
2023-05-04T19:49:47.461Z,9.38
2023-05-04T19:54:45.037Z,9.38
2023-05-04T19:57:13.273Z,14.70
2023-05-04T19:59:44.743Z,11.02
2023-05-04T20:02:14.614Z,11.05
2023-05-04T20:04:42.960Z,11.65
2023-05-04T20:07:11.210Z,13.32
2023-05-04T20:09:39.518Z,11.90
2023-05-04T20:12:08.192Z,9.10
2023-05-04T20:14:36.793Z,11.35
2023-05-04T20:17:06.778Z,9.88
2023-05-04T20:19:35.043Z,8.63
2023-05-04T20:22:03.369Z,10.13
2023-05-04T20:24:31.605Z,12.48
2023-05-04T20:26:59.858Z,12.60
2023-05-04T20:29:28.162Z,11.23
2023-05-04T20:31:56.420Z,9.13
2023-05-04T20:34:26.096Z,11.13
2023-05-04T20:36:54.496Z,10.60
2023-05-04T20:39:22.761Z,11.98
2023-05-04T20:41:51.113Z,13.50
2023-05-04T20:44:19.421Z,11.95
2023-05-04T20:46:47.750Z,8.70
2023-05-04T20:49:15.982Z,9.02
2023-05-04T20:51:46.121Z,9.88
2023-05-04T20:54:14.354Z,9.32
2023-05-04T20:56:42.585Z,10.02
2023-05-04T20:59:10.946Z,10.55
2023-05-04T21:01:39.213Z,8.98
2023-05-04T21:04:07.812Z,9.85
2023-05-04T21:06:36.047Z,12.13
2023-05-04T21:09:05.798Z,11.77
2023-05-04T21:11:34.529Z,13.00
2023-05-04T21:14:03.261Z,13.55
2023-05-04T21:16:31.776Z,18.98
2023-05-04T21:19:00.152Z,8.40
2023-05-04T21:21:28.507Z,8.98
2023-05-04T21:23:56.813Z,10.93
2023-05-04T21:26:26.767Z,10.32
2023-05-04T21:28:55.168Z,11.00
2023-05-04T21:31:23.473Z,10.68
2023-05-04T21:33:52.245Z,11.30
2023-05-04T21:36:21.045Z,11.43
2023-05-04T21:38:49.455Z,10.63
2023-05-04T21:41:18.000Z,13.02
2023-05-04T21:43:47.639Z,12.07
2023-05-04T21:46:16.054Z,12.60
2023-05-04T21:48:44.538Z,12.15
2023-05-04T21:51:12.996Z,9.65
2023-05-04T21:53:44.097Z,11.20
2023-05-04T21:56:12.807Z,11.88
2023-05-04T21:58:41.175Z,9.80
2023-05-04T22:01:12.323Z,11.75
2023-05-04T22:03:41.010Z,13.70
2023-05-04T22:06:09.485Z,9.18
2023-05-04T22:08:37.907Z,11.20
2023-05-04T22:11:06.387Z,11.68
2023-05-04T22:13:34.705Z,11.02
2023-05-04T22:16:03.083Z,11.88
2023-05-04T22:18:32.744Z,12.75
2023-05-04T22:21:01.300Z,12.57
2023-05-04T22:23:29.671Z,10.20
2023-05-04T22:25:58.002Z,12.93
2023-05-04T22:28:26.415Z,9.85
2023-05-04T22:30:54.782Z,10.75
2023-05-04T22:33:23.166Z,12.80
2023-05-04T22:35:52.810Z,10.35
2023-05-04T22:38:21.093Z,8.87
2023-05-04T22:40:50.123Z,10.63
2023-05-04T22:43:18.397Z,9.13
2023-05-04T22:45:46.717Z,10.30
2023-05-04T22:48:15.126Z,8.32
2023-05-04T22:50:43.560Z,46.63
2023-05-04T22:53:14.545Z,12.77
2023-05-04T22:55:42.895Z,13.43
2023-05-04T22:58:11.303Z,13.38
2023-05-04T23:00:39.635Z,12.48
2023-05-04T23:03:08.077Z,11.07
2023-05-04T23:05:36.583Z,8.95
2023-05-04T23:08:05.164Z,9.90
2023-05-04T23:10:35.683Z,10.00
2023-05-04T23:13:03.982Z,12.70
2023-05-04T23:15:32.786Z,10.27
2023-05-04T23:18:01.301Z,11.20
2023-05-04T23:20:29.816Z,11.30
2023-05-04T23:22:58.202Z,9.95
2023-05-04T23:25:26.710Z,12.13
2023-05-04T23:27:56.386Z,10.75
2023-05-04T23:30:24.715Z,9.07
2023-05-04T23:32:53.050Z,12.02
2023-05-04T23:35:21.530Z,13.20
2023-05-04T23:37:49.864Z,10.52
2023-05-04T23:40:18.385Z,11.68
2023-05-04T23:42:49.856Z,11.63
2023-05-04T23:45:19.578Z,11.25
2023-05-04T23:47:47.844Z,14.20
2023-05-04T23:50:16.570Z,15.57
2023-05-04T23:52:44.899Z,13.48
2023-05-04T23:55:13.675Z,9.50
2023-05-04T23:57:44.301Z,10.88
